Flight Track Log - Related Links

Times and Time Zones

All times are in EDT time to prevent confusion due to time zone crossing. See the LBQ792 flight status page for this flight to view local times or setup timezone preferences in your user account.

Time Position Orientation Groundspeed Altitude Reporting Facility
EDT Latitude Longitude Course Direction KTS MPH feet Rate Location/Type
Thu 09:58:35 PM 43.1261 -76.0761 46° Northeast 139 160 2,600  Level Boston Center
Thu 09:59:36 PM 43.1494 -76.1258 303° West 173 199 4,000 1,488 Climbing Boston Center
Thu 10:00:36 PM 43.1456 -76.1853 265° West 170 196 5,600 992 Climbing Boston Center
Thu 10:01:37 PM 43.1450 -76.2650 269° West 204 235 6,000 197 Climbing Boston Center
Thu 10:02:38 PM 43.1439 -76.3533 269° West 246 283 6,000  Level Boston Center
Thu 10:03:38 PM 43.1428 -76.4444 269° West 240 276 6,000  Level Boston Center
Thu 10:04:45 PM 43.1414 -76.5439 269° West 238 274 6,000  Level Boston Center
Thu 10:05:46 PM 43.1400 -76.6378 269° West 238 274 6,000  Level Boston Center
Thu 10:06:29 PM 43.1392 -76.6992 269° West 239 275 6,000  Level Cleveland Center
Thu 10:07:29 PM 43.1339 -76.7936 266° West 237 273 6,000  Level Cleveland Center
Thu 10:08:36 PM 43.1331 -76.8961 269° West 238 274 6,000  Level Cleveland Center
Thu 10:09:31 PM 43.1333 -76.9728 270° West 238 274 6,000 -157 Level Cleveland Center
Thu 10:10:31 PM 43.1281 -77.0700 266° West 242 278 5,700 -645 Descending Cleveland Center
Thu 10:11:32 PM 43.1161 -77.1617 260° West 253 291 4,700 -885 Descending Cleveland Center
Thu 10:12:33 PM 43.1022 -77.2561 259° West 253 291 3,900 -347 Descending Cleveland Center
Thu 10:13:33 PM 43.0797 -77.3428 250° West 228 262 4,000 -198 Climbing Cleveland Center
Thu 10:14:34 PM 43.0611 -77.4289 254° West 235 270 3,500 -703 Descending Cleveland Center
Thu 10:15:41 PM 43.0367 -77.5239 251° West 251 289 2,500 -472 Descending Cleveland Center
Thu 10:16:41 PM 43.0222 -77.6097 257° West 222 255 2,500 -198 Level Cleveland Center
Thu 10:17:42 PM 43.0158 -77.6811 263° West 145 167 2,100 -347 Descending Cleveland Center
Thu 10:18:42 PM 43.0436 -77.7139 319° Northwest 143 165 1,800 -440 Descending Cleveland Center
Thu 10:19:31 PM 43.0789 -77.7067 North 174 200 1,300 -612 Descending Cleveland Center
Thu 10:21:00 PM 43.1167 -77.6667 North  Level FlightAware Approximate

Login

Don't have an account? Register now (free) for customized features, flight alerts, and more!